createdAt,value
2022-10-05T00:01:46.998Z,99593.63
2022-10-05T00:04:15.624Z,99602.03
2022-10-05T00:06:51.079Z,99598.84
2022-10-05T00:09:21.285Z,99588.88
2022-10-05T00:11:48.858Z,99590.13
2022-10-05T00:14:30.249Z,99566.13
2022-10-05T00:16:57.555Z,99566.31
2022-10-05T00:19:30.953Z,99562.66
2022-10-05T00:22:19.294Z,99556.47
2022-10-05T00:24:48.531Z,99551.09
2022-10-05T00:27:15.093Z,99554.72
2022-10-05T00:29:41.653Z,99552.69
2022-10-05T00:32:10.596Z,99543.53
2022-10-05T00:34:37.848Z,99538.44
2022-10-05T00:37:05.249Z,99544.91
2022-10-05T00:39:33.172Z,99542.22
2022-10-05T00:41:59.649Z,99529.91
2022-10-05T00:44:45.861Z,99529.13
2022-10-05T00:47:12.269Z,99534.00
2022-10-05T00:49:57.489Z,99516.81
2022-10-05T00:52:51.666Z,99524.53
2022-10-05T00:55:20.823Z,99521.69
2022-10-05T00:57:56.395Z,99514.75
2022-10-05T01:00:26.805Z,99517.59
2022-10-05T01:03:35.231Z,99522.78
2022-10-05T01:06:23.291Z,99527.56
2022-10-05T01:09:06.871Z,99520.56
2022-10-05T01:11:50.935Z,99507.66
2022-10-05T01:14:27.348Z,99513.81
2022-10-05T01:17:18.526Z,99526.13
2022-10-05T01:20:05.600Z,99524.72
2022-10-05T01:22:44.278Z,99506.38
2022-10-05T01:25:28.999Z,99501.00
2022-10-05T01:28:19.228Z,99494.38
2022-10-05T01:31:06.102Z,99492.50
2022-10-05T01:33:46.312Z,99486.34
2022-10-05T01:36:36.161Z,99482.88
2022-10-05T01:39:02.605Z,99486.50
2022-10-05T01:41:49.272Z,99474.66
2022-10-05T01:44:21.101Z,99460.13
2022-10-05T01:47:03.673Z,99457.44
2022-10-05T01:49:38.766Z,99458.72
2022-10-05T01:52:14.409Z,99455.06
2022-10-05T01:54:40.892Z,99459.00
2022-10-05T01:57:13.054Z,99472.91
2022-10-05T01:59:54.878Z,99451.28
2022-10-05T02:02:24.343Z,99431.97
2022-10-05T02:05:03.532Z,99425.53
2022-10-05T02:07:42.442Z,99439.75
2022-10-05T02:10:30.960Z,99438.94
2022-10-05T02:13:38.298Z,99435.47
2022-10-05T02:16:10.328Z,99434.03
2022-10-05T02:18:43.897Z,99414.78
2022-10-05T02:21:11.002Z,99413.03
2022-10-05T02:23:40.573Z,99400.69
2022-10-05T02:26:11.140Z,99396.94
2022-10-05T02:28:53.397Z,99410.03
2022-10-05T02:31:25.008Z,99376.41
2022-10-05T02:33:51.606Z,99380.97
2022-10-05T02:36:27.549Z,99383.84
2022-10-05T02:39:05.818Z,99401.69
2022-10-05T02:41:42.325Z,99372.91
2022-10-05T02:44:24.485Z,99373.38
2022-10-05T02:47:23.894Z,99380.19
2022-10-05T02:49:59.426Z,99371.03
2022-10-05T02:52:41.221Z,99370.69
2022-10-05T02:55:23.220Z,99369.44
2022-10-05T02:57:49.664Z,99369.59
2022-10-05T03:00:19.618Z,99370.06
2022-10-05T03:03:08.211Z,99362.31
2022-10-05T03:05:49.319Z,99375.44
2022-10-05T03:08:42.066Z,99353.00
2022-10-05T03:11:18.893Z,99343.22
2022-10-05T03:14:22.857Z,99346.84
2022-10-05T03:17:11.203Z,99331.84
2022-10-05T03:19:49.942Z,99332.78
2022-10-05T03:22:31.415Z,99339.09
2022-10-05T03:25:16.612Z,99326.00
2022-10-05T03:27:57.255Z,99323.31
2022-10-05T03:30:26.579Z,99322.81
2022-10-05T03:32:55.730Z,99319.19
2022-10-05T03:36:06.836Z,99319.06
2022-10-05T03:38:39.089Z,99323.75
2022-10-05T03:41:11.554Z,99337.06
2022-10-05T03:43:37.980Z,99313.69
2022-10-05T03:46:22.869Z,99319.22
2022-10-05T03:48:56.821Z,99307.53
2022-10-05T03:51:29.790Z,99316.34
2022-10-05T03:54:05.162Z,99306.56
2022-10-05T03:56:38.636Z,99316.97
2022-10-05T03:59:17.320Z,99309.06
2022-10-05T04:01:55.092Z,99314.13
2022-10-05T04:04:49.752Z,99307.03
2022-10-05T04:07:29.666Z,99287.44
2022-10-05T04:09:58.150Z,99279.38
2022-10-05T04:12:27.327Z,99278.25
2022-10-05T04:14:57.055Z,99258.66
2022-10-05T04:17:40.855Z,99262.81
2022-10-05T04:20:25.606Z,99254.25
2022-10-05T04:23:07.834Z,99249.03
2022-10-05T04:25:41.674Z,99239.56
2022-10-05T04:28:22.476Z,99253.63
2022-10-05T04:30:53.312Z,99221.84
2022-10-05T04:33:21.392Z,99217.75
2022-10-05T04:35:56.825Z,99205.63
2022-10-05T04:38:46.188Z,99205.47
2022-10-05T04:41:43.594Z,99203.72
2022-10-05T04:44:47.894Z,99190.75
2022-10-05T04:47:26.449Z,99188.38
2022-10-05T04:50:07.805Z,99180.63
2022-10-05T04:52:55.581Z,99178.28
2022-10-05T04:55:24.650Z,99176.53
2022-10-05T04:58:06.300Z,99173.38
2022-10-05T05:01:05.122Z,99187.59
2022-10-05T05:03:40.766Z,99166.75
2022-10-05T05:06:28.656Z,99169.59
2022-10-05T05:09:07.321Z,99173.84
2022-10-05T05:11:51.270Z,99162.47
2022-10-05T05:14:39.102Z,99146.50
2022-10-05T05:17:31.040Z,99127.69
2022-10-05T05:20:32.718Z,99137.94
2022-10-05T05:23:21.034Z,99113.00
2022-10-05T05:26:01.389Z,99124.84
2022-10-05T05:28:59.605Z,99116.00
2022-10-05T05:32:09.157Z,99120.44
2022-10-05T05:34:55.042Z,99112.69
2022-10-05T05:37:43.568Z,99109.56
2022-10-05T05:40:09.966Z,99120.44
2022-10-05T05:42:45.333Z,99098.66
2022-10-05T05:45:20.910Z,99097.88
2022-10-05T05:47:57.373Z,99107.03
2022-10-05T05:50:34.796Z,99108.47
2022-10-05T05:53:01.228Z,99104.50
2022-10-05T05:55:50.190Z,99101.34
2022-10-05T05:58:16.633Z,99089.97
2022-10-05T06:00:58.870Z,99102.00
2022-10-05T06:03:39.487Z,99087.28
2022-10-05T06:06:19.897Z,99099.47
2022-10-05T06:09:03.047Z,99105.63
2022-10-05T06:11:37.303Z,99099.78
2022-10-05T06:14:13.050Z,99102.78
2022-10-05T06:16:47.423Z,99085.09
2022-10-05T06:19:16.781Z,99098.19
2022-10-05T06:21:46.323Z,99090.13
2022-10-05T06:24:21.057Z,99096.00
2022-10-05T06:27:05.587Z,99089.50
2022-10-05T06:29:55.069Z,99098.03
2022-10-05T06:32:34.889Z,99096.91
2022-10-05T06:35:08.773Z,99095.00
2022-10-05T06:37:55.005Z,99087.75
2022-10-05T06:40:37.769Z,99090.44
2022-10-05T06:43:04.206Z,99095.16
2022-10-05T06:45:45.594Z,99074.59
2022-10-05T06:48:27.118Z,99077.28
2022-10-05T06:51:04.112Z,99075.97
2022-10-05T06:54:15.253Z,99066.06
2022-10-05T06:57:23.798Z,99062.84
2022-10-05T06:59:55.326Z,99067.06
2022-10-05T07:02:30.869Z,99061.03
2022-10-05T07:05:12.438Z,99076.38
2022-10-05T07:07:57.782Z,99071.78
2022-10-05T07:10:41.557Z,99057.38
2022-10-05T07:13:36.014Z,99061.28
2022-10-05T07:16:45.578Z,99060.63
2022-10-05T07:19:52.449Z,99055.09
2022-10-05T07:22:36.940Z,99052.22
2022-10-05T07:25:23.885Z,99050.31
2022-10-05T07:28:00.143Z,99052.78
2022-10-05T07:30:26.680Z,99042.81
2022-10-05T07:33:12.153Z,99036.00
2022-10-05T07:36:18.629Z,99038.84
2022-10-05T07:38:52.707Z,99037.19
2022-10-05T07:41:28.133Z,99020.06
2022-10-05T07:44:13.072Z,99017.50
2022-10-05T07:46:59.865Z,99017.03
2022-10-05T07:49:28.979Z,99014.34
2022-10-05T07:52:00.569Z,99008.19
2022-10-05T07:54:36.914Z,99004.19
2022-10-05T07:57:15.549Z,99008.06
2022-10-05T07:59:50.065Z,99009.88
2022-10-05T08:03:01.121Z,99015.81
2022-10-05T08:05:38.233Z,99014.31
2022-10-05T08:08:23.730Z,99003.22
2022-10-05T08:11:13.409Z,99010.75
2022-10-05T08:13:57.158Z,99007.41
2022-10-05T08:16:28.936Z,98998.31
2022-10-05T08:19:02.506Z,99012.41
2022-10-05T08:21:38.126Z,99021.16
2022-10-05T08:24:22.931Z,99008.47
2022-10-05T08:27:05.116Z,99014.38
2022-10-05T08:30:11.137Z,99015.00
2022-10-05T08:32:57.122Z,99024.06
2022-10-05T08:35:34.870Z,99022.94
2022-10-05T08:38:16.739Z,99038.91
2022-10-05T08:41:13.223Z,99068.16
2022-10-05T08:44:10.853Z,99082.00
2022-10-05T08:47:06.238Z,99088.00
2022-10-05T08:49:57.012Z,99111.31
2022-10-05T08:52:29.257Z,99086.66
2022-10-05T08:55:06.179Z,99094.25
2022-10-05T08:57:41.883Z,99085.59
2022-10-05T09:00:13.061Z,99103.63
2022-10-05T09:02:57.707Z,99085.25
2022-10-05T09:05:42.824Z,99097.72
2022-10-05T09:08:15.369Z,99085.09
2022-10-05T09:11:00.683Z,99081.13
2022-10-05T09:14:04.456Z,99079.72
2022-10-05T09:16:52.865Z,99078.91
2022-10-05T09:19:43.841Z,99075.25
2022-10-05T09:22:38.314Z,99074.91
2022-10-05T09:25:35.749Z,99096.09
2022-10-05T09:28:18.213Z,99078.50
2022-10-05T09:31:02.130Z,99076.81
2022-10-05T09:34:13.521Z,99083.69
2022-10-05T09:37:08.630Z,99081.47
2022-10-05T09:40:05.743Z,99082.63
2022-10-05T09:42:45.154Z,99094.00
2022-10-05T09:45:45.705Z,99112.69
2022-10-05T09:48:30.879Z,99123.88
2022-10-05T09:51:06.475Z,99121.66
2022-10-05T09:53:46.547Z,99128.28
2022-10-05T09:56:33.376Z,99131.06
2022-10-05T09:59:11.174Z,99141.00
2022-10-05T10:01:40.301Z,99135.94
2022-10-05T10:04:12.867Z,99148.59
2022-10-05T10:06:54.494Z,99147.66
2022-10-05T10:09:38.837Z,99148.78
2022-10-05T10:12:08.297Z,99157.34
2022-10-05T10:15:16.329Z,99165.56
2022-10-05T10:18:03.447Z,99189.22
2022-10-05T10:21:03.672Z,99203.25
2022-10-05T10:24:14.716Z,99217.63
2022-10-05T10:26:47.785Z,99215.25
2022-10-05T10:29:41.983Z,99205.91
2022-10-05T10:32:26.286Z,99210.81
2022-10-05T10:35:18.926Z,99216.34
2022-10-05T10:38:23.857Z,99213.66
2022-10-05T10:41:27.902Z,99221.91
2022-10-05T10:44:23.681Z,99254.06
2022-10-05T10:47:11.705Z,99256.91
2022-10-05T10:50:16.319Z,99252.19
2022-10-05T10:53:39.385Z,99258.47
2022-10-05T10:56:33.095Z,99292.88
2022-10-05T10:59:26.563Z,99292.84
2022-10-05T11:02:01.566Z,99302.97
2022-10-05T11:04:40.507Z,99305.97
2022-10-05T11:07:36.126Z,99297.63
2022-10-05T11:10:20.649Z,99294.88
2022-10-05T11:13:24.889Z,99288.06
2022-10-05T11:19:16.451Z,99316.97
2022-10-05T11:22:07.342Z,99307.50
2022-10-05T11:25:06.149Z,99300.84
2022-10-05T11:28:10.220Z,99295.16
2022-10-05T11:31:10.908Z,99309.44
2022-10-05T11:34:14.238Z,99321.44
2022-10-05T11:37:09.174Z,99317.56
2022-10-05T11:39:55.568Z,99326.44
2022-10-05T11:42:28.138Z,99334.69
2022-10-05T11:45:22.582Z,99337.03
2022-10-05T11:48:00.682Z,99343.56
2022-10-05T11:50:50.654Z,99347.25
2022-10-05T11:53:29.476Z,99354.31
2022-10-05T11:56:05.015Z,99352.56
2022-10-05T11:58:42.333Z,99361.84
2022-10-05T12:01:29.370Z,99361.31
2022-10-05T12:04:08.565Z,99376.75
2022-10-05T12:06:52.979Z,99389.56
2022-10-05T12:09:34.411Z,99404.69
2022-10-05T12:12:00.876Z,99411.75
2022-10-05T12:14:45.617Z,99417.69
2022-10-05T12:17:14.774Z,99403.34
2022-10-05T12:19:45.970Z,99406.31
2022-10-05T12:22:21.858Z,99405.84
2022-10-05T12:25:04.757Z,99390.88
2022-10-05T12:27:39.514Z,99400.97
2022-10-05T12:30:16.670Z,99397.94
2022-10-05T12:33:02.212Z,99413.28
2022-10-05T12:35:55.705Z,99396.41
2022-10-05T12:38:28.604Z,99398.81
2022-10-05T12:41:27.278Z,99402.28
2022-10-05T12:44:12.271Z,99411.19
2022-10-05T12:46:54.255Z,99415.13
2022-10-05T12:49:43.848Z,99424.44
2022-10-05T12:52:43.368Z,99429.75
2022-10-05T12:55:12.848Z,99425.19
2022-10-05T12:57:57.871Z,99423.47
2022-10-05T13:00:24.754Z,99419.25
2022-10-05T13:03:01.700Z,99426.38
2022-10-05T13:05:40.764Z,99421.59
2022-10-05T13:08:45.251Z,99420.63
2022-10-05T13:11:16.959Z,99435.53
2022-10-05T13:13:54.771Z,99445.97
2022-10-05T13:16:39.964Z,99446.41
2022-10-05T13:19:35.737Z,99450.53
2022-10-05T13:22:25.476Z,99446.75
2022-10-05T13:25:20.529Z,99452.44
2022-10-05T13:28:08.811Z,99450.06
2022-10-05T13:30:36.977Z,99457.91
2022-10-05T13:33:20.299Z,99474.38
2022-10-05T13:36:10.648Z,99489.09
2022-10-05T13:39:00.666Z,99488.84
2022-10-05T13:41:36.641Z,99493.66
2022-10-05T13:44:18.914Z,99504.13
2022-10-05T13:46:53.681Z,99517.59
2022-10-05T13:49:49.549Z,99510.53
2022-10-05T13:52:42.393Z,99527.41
2022-10-05T13:55:35.006Z,99532.41
2022-10-05T13:58:07.626Z,99539.59
2022-10-05T14:00:44.898Z,99512.53
2022-10-05T14:03:29.976Z,99526.47
2022-10-05T14:05:59.881Z,99534.09
2022-10-05T14:08:46.194Z,99539.13
2022-10-05T14:11:26.749Z,99535.03
2022-10-05T14:14:03.889Z,99531.41
2022-10-05T14:16:33.289Z,99547.41
2022-10-05T14:19:05.714Z,99546.03
2022-10-05T14:21:42.993Z,99551.16
2022-10-05T14:24:43.202Z,99565.75
2022-10-05T14:27:33.100Z,99562.25
2022-10-05T14:30:16.952Z,99580.59
2022-10-05T14:33:05.872Z,99566.00
2022-10-05T14:35:52.449Z,99544.47
2022-10-05T14:38:26.475Z,99556.44
2022-10-05T14:41:07.874Z,99547.75
2022-10-05T14:43:35.175Z,99556.41
2022-10-05T14:46:23.348Z,99556.97
2022-10-05T14:49:24.166Z,99572.81
2022-10-05T14:51:51.767Z,99583.75
2022-10-05T14:54:36.705Z,99574.56
2022-10-05T14:57:06.628Z,99573.94
2022-10-05T14:59:36.173Z,99579.34
2022-10-05T15:02:21.161Z,99585.81
2022-10-05T15:05:00.293Z,99580.13
2022-10-05T15:07:49.213Z,99578.69
2022-10-05T15:10:30.700Z,99571.47
2022-10-05T15:13:11.313Z,99575.03
2022-10-05T15:15:46.986Z,99582.25
2022-10-05T15:18:27.230Z,99600.56
2022-10-05T15:21:21.592Z,99609.00
2022-10-05T15:23:59.233Z,99614.63
2022-10-05T15:26:50.570Z,99608.03
2022-10-05T15:29:38.859Z,99608.41
2022-10-05T15:32:23.980Z,99603.44
2022-10-05T15:35:08.274Z,99618.31
2022-10-05T15:37:44.535Z,99613.03
2022-10-05T15:40:36.536Z,99630.03
2022-10-05T15:43:10.201Z,99624.66
2022-10-05T15:45:42.893Z,99629.94
2022-10-05T15:48:21.553Z,99630.50
2022-10-05T15:51:00.584Z,99643.72
2022-10-05T15:53:48.501Z,99633.81
2022-10-05T15:56:33.703Z,99641.72
2022-10-05T15:59:18.540Z,99646.94
2022-10-05T16:01:51.845Z,99654.41
2022-10-05T16:04:28.638Z,99668.56
2022-10-05T16:07:18.493Z,99680.47
2022-10-05T16:09:49.856Z,99679.03
2022-10-05T16:12:31.400Z,99676.34
2022-10-05T16:15:20.274Z,99696.19
2022-10-05T16:18:18.251Z,99697.13
2022-10-05T16:20:57.524Z,99701.28
2022-10-05T16:23:50.317Z,99711.06
2022-10-05T16:26:36.436Z,99716.53
2022-10-05T16:29:13.003Z,99722.03
2022-10-05T16:32:00.032Z,99730.72
2022-10-05T16:34:45.147Z,99740.03
2022-10-05T16:37:23.688Z,99741.97
2022-10-05T16:39:55.031Z,99749.84
2022-10-05T16:42:34.935Z,99758.34
2022-10-05T16:45:45.605Z,99765.56
2022-10-05T16:48:23.124Z,99763.13
2022-10-05T16:51:05.243Z,99784.06
2022-10-05T16:53:47.055Z,99777.47
2022-10-05T16:56:18.637Z,99798.94
2022-10-05T16:59:06.803Z,99819.03
2022-10-05T17:01:50.153Z,99836.25
2022-10-05T17:04:34.694Z,99845.22
2022-10-05T17:07:39.412Z,99877.06
2022-10-05T17:10:27.827Z,99911.63
2022-10-05T17:13:31.456Z,99902.91
2022-10-05T17:16:14.482Z,99894.22
2022-10-05T17:18:56.212Z,99909.78
2022-10-05T17:21:41.318Z,99903.16
2022-10-05T17:24:23.119Z,99909.06
2022-10-05T17:27:19.062Z,99912.75
2022-10-05T17:29:49.949Z,99912.72
2022-10-05T17:32:16.384Z,99921.53
2022-10-05T17:35:01.386Z,99918.56
2022-10-05T17:37:27.816Z,99939.63
2022-10-05T17:39:56.084Z,99949.69
2022-10-05T17:42:32.520Z,99974.66
2022-10-05T17:45:14.264Z,99982.09
2022-10-05T17:48:11.351Z,99985.75
2022-10-05T17:50:58.978Z,100008.03
2022-10-05T17:53:53.922Z,100017.97
2022-10-05T17:56:22.299Z,100010.97
2022-10-05T17:58:57.561Z,99998.97
2022-10-05T18:01:36.043Z,100006.09
2022-10-05T18:04:37.924Z,100015.47
2022-10-05T18:07:19.135Z,100040.16
2022-10-05T18:09:56.275Z,100052.53
2022-10-05T18:12:24.200Z,100045.69
2022-10-05T18:15:07.380Z,100058.03
2022-10-05T18:17:51.350Z,100063.44
2022-10-05T18:20:34.955Z,100078.69
2022-10-05T18:23:07.257Z,100078.34
2022-10-05T18:25:38.186Z,100088.78
2022-10-05T18:28:13.905Z,100091.53
2022-10-05T18:31:01.176Z,100092.88
2022-10-05T18:33:50.612Z,100103.38
2022-10-05T18:36:24.092Z,100113.88
2022-10-05T18:39:15.101Z,100118.97
2022-10-05T18:42:24.565Z,100130.50
2022-10-05T18:45:00.641Z,100136.34
2022-10-05T18:47:47.869Z,100140.66
2022-10-05T18:50:25.499Z,100152.19
2022-10-05T18:53:04.648Z,100163.16
2022-10-05T18:56:02.180Z,100160.53
2022-10-05T18:58:36.797Z,100168.31
2022-10-05T19:01:12.004Z,100176.88
2022-10-05T19:03:49.148Z,100174.75
2022-10-05T19:06:24.297Z,100177.22
2022-10-05T19:08:57.377Z,100187.88
2022-10-05T19:11:59.305Z,100195.59
2022-10-05T19:14:35.081Z,100199.06
2022-10-05T19:17:45.198Z,100206.56
2022-10-05T19:20:25.134Z,100218.84
2022-10-05T19:23:29.858Z,100245.06
2022-10-05T19:26:08.986Z,100270.16
2022-10-05T19:28:41.128Z,100296.34
2022-10-05T19:31:26.507Z,100311.00
2022-10-05T19:34:13.409Z,100311.06
2022-10-05T19:36:51.965Z,100331.63
2022-10-05T19:39:27.462Z,100326.28
2022-10-05T19:42:23.048Z,100321.72
2022-10-05T19:44:52.555Z,100311.06
2022-10-05T19:47:22.273Z,100326.03
2022-10-05T19:49:51.490Z,100330.31
2022-10-05T19:52:44.176Z,100333.25
2022-10-05T19:55:26.577Z,100331.38
2022-10-05T19:57:56.285Z,100330.31
2022-10-05T20:00:32.803Z,100324.69
2022-10-05T20:03:29.508Z,100324.69
2022-10-05T20:06:07.782Z,100315.09
2022-10-05T20:08:43.777Z,100317.75
2022-10-05T20:11:18.803Z,100314.84
2022-10-05T20:13:58.418Z,100310.03
2022-10-05T20:19:36.027Z,100319.88
2022-10-05T20:22:27.328Z,100331.94
2022-10-05T20:24:56.704Z,100333.25
2022-10-05T20:27:37.313Z,100340.72
2022-10-05T20:30:06.049Z,100347.91
2022-10-05T20:32:32.514Z,100358.59
2022-10-05T20:34:59.083Z,100357.53
2022-10-05T20:37:25.646Z,100373.53
2022-10-05T20:39:52.674Z,100381.00
2022-10-05T20:42:20.841Z,100389.00
2022-10-05T20:44:49.937Z,100399.41
2022-10-05T20:47:19.615Z,100397.56
2022-10-05T20:49:46.098Z,100390.59
2022-10-05T20:52:15.071Z,100391.38
2022-10-05T20:54:42.322Z,100385.53
2022-10-05T20:57:09.503Z,100402.34
2022-10-05T20:59:36.326Z,100397.78
2022-10-05T21:02:03.815Z,100409.53
2022-10-05T21:04:40.826Z,100408.47
2022-10-05T21:07:08.221Z,100421.53
2022-10-05T21:09:34.740Z,100433.28
2022-10-05T21:12:01.264Z,100447.69
2022-10-05T21:14:34.114Z,100440.22
2022-10-05T21:17:02.025Z,100445.03
2022-10-05T21:19:29.516Z,100445.81
2022-10-05T21:21:59.631Z,100451.16
2022-10-05T21:24:26.482Z,100473.00
2022-10-05T21:26:57.574Z,100467.44
2022-10-05T21:29:24.232Z,100487.44
2022-10-05T21:31:51.192Z,100497.81
2022-10-05T21:34:17.806Z,100501.31
2022-10-05T21:36:44.258Z,100498.09
2022-10-05T21:39:10.842Z,100501.03
2022-10-05T21:41:37.306Z,100520.50
2022-10-05T21:44:04.168Z,100514.63
2022-10-05T21:46:31.640Z,100536.22
2022-10-05T21:48:58.299Z,100535.16
2022-10-05T21:51:26.361Z,100548.50
2022-10-05T21:54:01.778Z,100558.59
2022-10-05T21:56:32.206Z,100561.25
2022-10-05T21:59:00.907Z,100561.53
2022-10-05T22:01:29.059Z,100567.94
2022-10-05T22:03:56.962Z,100559.88
2022-10-05T22:06:23.516Z,100570.25
2022-10-05T22:08:50.059Z,100574.56
2022-10-05T22:11:17.773Z,100570.03
2022-10-05T22:13:48.744Z,100572.94
2022-10-05T22:16:16.917Z,100586.53
2022-10-05T22:18:43.847Z,100594.84
2022-10-05T22:21:15.051Z,100602.56
2022-10-05T22:23:43.671Z,100611.13
2022-10-05T22:26:12.938Z,100618.56
2022-10-05T22:28:40.949Z,100624.75
2022-10-05T22:31:09.557Z,100625.25
2022-10-05T22:33:37.356Z,100620.19
2022-10-05T22:36:05.797Z,100626.25
2022-10-05T22:38:32.690Z,100644.22
2022-10-05T22:40:59.446Z,100653.53
2022-10-05T22:43:27.019Z,100664.97
2022-10-05T22:45:54.442Z,100675.97
2022-10-05T22:48:21.094Z,100685.63
2022-10-05T22:50:48.906Z,100685.63
2022-10-05T22:53:15.544Z,100693.06
2022-10-05T22:55:42.047Z,100701.63
2022-10-05T22:58:08.529Z,100702.66
2022-10-05T23:00:57.141Z,100699.97
2022-10-05T23:03:21.760Z,100704.00
2022-10-05T23:05:48.297Z,100708.75
2022-10-05T23:08:16.106Z,100713.19
2022-10-05T23:10:43.377Z,100718.59
2022-10-05T23:13:09.895Z,100726.53
2022-10-05T23:15:36.407Z,100715.06
2022-10-05T23:18:02.944Z,100717.78
